sensor_id;sensor_type;location;lat;lon;timestamp;P1;durP1;ratioP1;P2;durP2;ratioP2
13588;SDS011;6865;52.552;13.434;2023-01-31T00:01:17;14.83;;;3.23;;
13588;SDS011;6865;52.552;13.434;2023-01-31T00:03:45;12.83;;;3.40;;
13588;SDS011;6865;52.552;13.434;2023-01-31T00:06:23;17.30;;;4.00;;
13588;SDS011;6865;52.552;13.434;2023-01-31T00:08:51;16.33;;;3.03;;
13588;SDS011;6865;52.552;13.434;2023-01-31T00:11:20;11.50;;;2.97;;
13588;SDS011;6865;52.552;13.434;2023-01-31T00:13:48;12.53;;;3.60;;
13588;SDS011;6865;52.552;13.434;2023-01-31T00:16:16;10.83;;;3.30;;
13588;SDS011;6865;52.552;13.434;2023-01-31T00:18:44;15.60;;;3.07;;
13588;SDS011;6865;52.552;13.434;2023-01-31T00:21:20;18.63;;;3.23;;
13588;SDS011;6865;52.552;13.434;2023-01-31T00:23:52;12.20;;;2.83;;
13588;SDS011;6865;52.552;13.434;2023-01-31T00:26:21;13.87;;;2.90;;
13588;SDS011;6865;52.552;13.434;2023-01-31T00:28:50;13.67;;;3.17;;
13588;SDS011;6865;52.552;13.434;2023-01-31T00:31:18;15.73;;;3.20;;
13588;SDS011;6865;52.552;13.434;2023-01-31T00:33:47;19.13;;;3.63;;
13588;SDS011;6865;52.552;13.434;2023-01-31T00:36:15;15.63;;;3.10;;
13588;SDS011;6865;52.552;13.434;2023-01-31T00:38:44;11.13;;;2.70;;
13588;SDS011;6865;52.552;13.434;2023-01-31T00:41:17;15.10;;;2.77;;
13588;SDS011;6865;52.552;13.434;2023-01-31T00:43:45;11.60;;;3.87;;
13588;SDS011;6865;52.552;13.434;2023-01-31T00:46:11;16.57;;;3.00;;
13588;SDS011;6865;52.552;13.434;2023-01-31T00:48:38;14.73;;;3.30;;
13588;SDS011;6865;52.552;13.434;2023-01-31T00:51:05;10.37;;;2.80;;
13588;SDS011;6865;52.552;13.434;2023-01-31T00:53:31;12.30;;;2.83;;
13588;SDS011;6865;52.552;13.434;2023-01-31T00:56:02;20.13;;;3.90;;
13588;SDS011;6865;52.552;13.434;2023-01-31T00:58:32;14.87;;;2.87;;
13588;SDS011;6865;52.552;13.434;2023-01-31T01:01:10;12.90;;;3.20;;
13588;SDS011;6865;52.552;13.434;2023-01-31T01:03:39;18.13;;;2.70;;
13588;SDS011;6865;52.552;13.434;2023-01-31T01:06:07;14.17;;;2.73;;
13588;SDS011;6865;52.552;13.434;2023-01-31T01:08:36;14.73;;;2.70;;
13588;SDS011;6865;52.552;13.434;2023-01-31T01:11:14;12.97;;;2.40;;
13588;SDS011;6865;52.552;13.434;2023-01-31T01:13:43;9.80;;;2.50;;
13588;SDS011;6865;52.552;13.434;2023-01-31T01:16:12;10.93;;;3.00;;
13588;SDS011;6865;52.552;13.434;2023-01-31T01:18:41;10.67;;;2.63;;
13588;SDS011;6865;52.552;13.434;2023-01-31T01:21:12;14.13;;;3.13;;
13588;SDS011;6865;52.552;13.434;2023-01-31T01:23:40;15.67;;;3.07;;
13588;SDS011;6865;52.552;13.434;2023-01-31T01:26:15;11.20;;;2.73;;
13588;SDS011;6865;52.552;13.434;2023-01-31T01:28:43;12.77;;;2.97;;
13588;SDS011;6865;52.552;13.434;2023-01-31T01:31:11;14.40;;;2.70;;
13588;SDS011;6865;52.552;13.434;2023-01-31T01:33:41;12.77;;;2.73;;
13588;SDS011;6865;52.552;13.434;2023-01-31T01:36:10;12.87;;;2.70;;
13588;SDS011;6865;52.552;13.434;2023-01-31T01:38:38;9.73;;;2.80;;
13588;SDS011;6865;52.552;13.434;2023-01-31T01:41:06;13.20;;;2.43;;
13588;SDS011;6865;52.552;13.434;2023-01-31T01:43:53;9.63;;;2.47;;
13588;SDS011;6865;52.552;13.434;2023-01-31T01:48:54;11.33;;;2.50;;
13588;SDS011;6865;52.552;13.434;2023-01-31T01:51:26;17.63;;;2.40;;
13588;SDS011;6865;52.552;13.434;2023-01-31T01:53:55;8.23;;;2.07;;
13588;SDS011;6865;52.552;13.434;2023-01-31T01:56:27;18.33;;;2.50;;
13588;SDS011;6865;52.552;13.434;2023-01-31T01:59:02;13.67;;;2.47;;
13588;SDS011;6865;52.552;13.434;2023-01-31T02:01:36;10.17;;;2.30;;
13588;SDS011;6865;52.552;13.434;2023-01-31T02:04:04;9.70;;;2.53;;
13588;SDS011;6865;52.552;13.434;2023-01-31T02:06:34;10.57;;;2.40;;
13588;SDS011;6865;52.552;13.434;2023-01-31T02:09:01;9.50;;;2.80;;
13588;SDS011;6865;52.552;13.434;2023-01-31T02:11:32;12.17;;;2.67;;
13588;SDS011;6865;52.552;13.434;2023-01-31T02:14:04;12.03;;;2.80;;
13588;SDS011;6865;52.552;13.434;2023-01-31T02:16:34;9.50;;;2.63;;
13588;SDS011;6865;52.552;13.434;2023-01-31T02:19:01;10.67;;;2.47;;
13588;SDS011;6865;52.552;13.434;2023-01-31T02:21:47;10.20;;;2.30;;
13588;SDS011;6865;52.552;13.434;2023-01-31T02:27:53;13.07;;;2.60;;
13588;SDS011;6865;52.552;13.434;2023-01-31T02:30:54;8.10;;;2.67;;
13588;SDS011;6865;52.552;13.434;2023-01-31T02:33:38;10.53;;;2.80;;
13588;SDS011;6865;52.552;13.434;2023-01-31T02:36:28;9.37;;;2.47;;
13588;SDS011;6865;52.552;13.434;2023-01-31T02:39:27;13.90;;;2.87;;
13588;SDS011;6865;52.552;13.434;2023-01-31T02:42:13;13.70;;;2.73;;
13588;SDS011;6865;52.552;13.434;2023-01-31T02:44:49;11.63;;;2.83;;
13588;SDS011;6865;52.552;13.434;2023-01-31T02:50:19;15.53;;;2.70;;
13588;SDS011;6865;52.552;13.434;2023-01-31T02:53:14;13.83;;;2.20;;
13588;SDS011;6865;52.552;13.434;2023-01-31T02:58:48;9.73;;;2.10;;
13588;SDS011;6865;52.552;13.434;2023-01-31T03:01:26;9.30;;;2.40;;
13588;SDS011;6865;52.552;13.434;2023-01-31T03:03:57;13.20;;;2.80;;
13588;SDS011;6865;52.552;13.434;2023-01-31T03:14:51;10.60;;;2.27;;
13588;SDS011;6865;52.552;13.434;2023-01-31T03:18:05;11.00;;;2.33;;
13588;SDS011;6865;52.552;13.434;2023-01-31T03:20:41;10.47;;;2.43;;
13588;SDS011;6865;52.552;13.434;2023-01-31T03:23:16;10.07;;;2.43;;
13588;SDS011;6865;52.552;13.434;2023-01-31T03:25:49;9.20;;;2.20;;
13588;SDS011;6865;52.552;13.434;2023-01-31T03:28:17;10.27;;;2.10;;
13588;SDS011;6865;52.552;13.434;2023-01-31T03:30:53;10.77;;;1.90;;
13588;SDS011;6865;52.552;13.434;2023-01-31T03:33:43;12.50;;;2.33;;
13588;SDS011;6865;52.552;13.434;2023-01-31T03:36:23;9.23;;;2.23;;
13588;SDS011;6865;52.552;13.434;2023-01-31T03:44:52;12.93;;;2.33;;
13588;SDS011;6865;52.552;13.434;2023-01-31T03:47:49;8.83;;;1.90;;
13588;SDS011;6865;52.552;13.434;2023-01-31T03:53:01;5.77;;;1.80;;
13588;SDS011;6865;52.552;13.434;2023-01-31T03:55:49;12.07;;;1.97;;
13588;SDS011;6865;52.552;13.434;2023-01-31T03:58:19;10.77;;;2.20;;
13588;SDS011;6865;52.552;13.434;2023-01-31T04:00:50;12.13;;;2.13;;
13588;SDS011;6865;52.552;13.434;2023-01-31T04:03:19;8.83;;;2.43;;
13588;SDS011;6865;52.552;13.434;2023-01-31T04:05:52;10.10;;;2.10;;
13588;SDS011;6865;52.552;13.434;2023-01-31T04:08:19;11.73;;;2.43;;
13588;SDS011;6865;52.552;13.434;2023-01-31T04:10:46;11.70;;;2.00;;
13588;SDS011;6865;52.552;13.434;2023-01-31T04:13:13;10.50;;;2.37;;
13588;SDS011;6865;52.552;13.434;2023-01-31T04:15:40;12.67;;;2.27;;
13588;SDS011;6865;52.552;13.434;2023-01-31T04:18:06;14.60;;;2.90;;
13588;SDS011;6865;52.552;13.434;2023-01-31T04:20:33;10.53;;;2.63;;
13588;SDS011;6865;52.552;13.434;2023-01-31T04:22:59;10.57;;;2.03;;
13588;SDS011;6865;52.552;13.434;2023-01-31T04:25:26;10.87;;;2.27;;
13588;SDS011;6865;52.552;13.434;2023-01-31T04:27:53;12.80;;;3.10;;
13588;SDS011;6865;52.552;13.434;2023-01-31T04:30:19;13.50;;;2.87;;
13588;SDS011;6865;52.552;13.434;2023-01-31T04:32:46;12.97;;;3.20;;
13588;SDS011;6865;52.552;13.434;2023-01-31T04:35:13;10.10;;;2.07;;
13588;SDS011;6865;52.552;13.434;2023-01-31T04:37:39;14.33;;;2.60;;
13588;SDS011;6865;52.552;13.434;2023-01-31T04:40:07;12.90;;;2.33;;
13588;SDS011;6865;52.552;13.434;2023-01-31T04:42:35;15.60;;;2.83;;
13588;SDS011;6865;52.552;13.434;2023-01-31T04:45:01;13.63;;;2.43;;
13588;SDS011;6865;52.552;13.434;2023-01-31T04:47:29;14.17;;;2.90;;
13588;SDS011;6865;52.552;13.434;2023-01-31T04:49:56;10.17;;;2.33;;
13588;SDS011;6865;52.552;13.434;2023-01-31T04:52:23;10.33;;;2.37;;
13588;SDS011;6865;52.552;13.434;2023-01-31T04:54:49;10.53;;;2.27;;
13588;SDS011;6865;52.552;13.434;2023-01-31T04:57:16;11.63;;;2.10;;
13588;SDS011;6865;52.552;13.434;2023-01-31T04:59:43;16.97;;;3.47;;
13588;SDS011;6865;52.552;13.434;2023-01-31T05:02:09;13.47;;;2.77;;
13588;SDS011;6865;52.552;13.434;2023-01-31T05:04:36;12.03;;;2.87;;
13588;SDS011;6865;52.552;13.434;2023-01-31T05:07:02;14.83;;;2.60;;
13588;SDS011;6865;52.552;13.434;2023-01-31T05:09:29;12.80;;;2.90;;
13588;SDS011;6865;52.552;13.434;2023-01-31T05:11:55;13.43;;;2.40;;
13588;SDS011;6865;52.552;13.434;2023-01-31T05:14:22;9.57;;;2.40;;
13588;SDS011;6865;52.552;13.434;2023-01-31T05:16:49;14.47;;;2.53;;
13588;SDS011;6865;52.552;13.434;2023-01-31T05:19:15;11.53;;;2.67;;
13588;SDS011;6865;52.552;13.434;2023-01-31T05:21:42;10.77;;;2.10;;
13588;SDS011;6865;52.552;13.434;2023-01-31T05:24:24;9.67;;;2.97;;
13588;SDS011;6865;52.552;13.434;2023-01-31T05:26:54;14.33;;;2.57;;
13588;SDS011;6865;52.552;13.434;2023-01-31T05:29:24;11.83;;;2.90;;
13588;SDS011;6865;52.552;13.434;2023-01-31T05:31:52;9.53;;;2.50;;
13588;SDS011;6865;52.552;13.434;2023-01-31T05:34:20;11.83;;;2.77;;
13588;SDS011;6865;52.552;13.434;2023-01-31T05:36:49;10.93;;;2.70;;
13588;SDS011;6865;52.552;13.434;2023-01-31T05:39:18;16.30;;;2.37;;
13588;SDS011;6865;52.552;13.434;2023-01-31T05:41:45;10.53;;;2.33;;
13588;SDS011;6865;52.552;13.434;2023-01-31T05:44:12;12.43;;;3.43;;
13588;SDS011;6865;52.552;13.434;2023-01-31T05:46:39;12.80;;;3.77;;
13588;SDS011;6865;52.552;13.434;2023-01-31T05:49:06;12.37;;;2.87;;
13588;SDS011;6865;52.552;13.434;2023-01-31T05:51:32;12.63;;;2.73;;
13588;SDS011;6865;52.552;13.434;2023-01-31T05:53:59;12.63;;;2.60;;
13588;SDS011;6865;52.552;13.434;2023-01-31T05:56:26;10.63;;;2.80;;
13588;SDS011;6865;52.552;13.434;2023-01-31T05:58:52;10.70;;;2.50;;
13588;SDS011;6865;52.552;13.434;2023-01-31T06:01:20;15.50;;;2.60;;
13588;SDS011;6865;52.552;13.434;2023-01-31T06:03:48;12.80;;;2.70;;
13588;SDS011;6865;52.552;13.434;2023-01-31T06:06:14;17.23;;;2.77;;
13588;SDS011;6865;52.552;13.434;2023-01-31T06:08:41;10.67;;;2.60;;
13588;SDS011;6865;52.552;13.434;2023-01-31T06:11:08;9.40;;;2.67;;
13588;SDS011;6865;52.552;13.434;2023-01-31T06:13:37;12.13;;;2.30;;
13588;SDS011;6865;52.552;13.434;2023-01-31T06:16:04;14.77;;;2.93;;
13588;SDS011;6865;52.552;13.434;2023-01-31T06:18:31;14.20;;;2.73;;
13588;SDS011;6865;52.552;13.434;2023-01-31T06:20:58;14.47;;;2.80;;
13588;SDS011;6865;52.552;13.434;2023-01-31T06:23:24;13.43;;;2.83;;
13588;SDS011;6865;52.552;13.434;2023-01-31T06:25:51;10.13;;;2.63;;
13588;SDS011;6865;52.552;13.434;2023-01-31T06:28:20;12.23;;;2.67;;
13588;SDS011;6865;52.552;13.434;2023-01-31T06:30:48;12.33;;;2.70;;
13588;SDS011;6865;52.552;13.434;2023-01-31T06:33:15;11.27;;;3.20;;
13588;SDS011;6865;52.552;13.434;2023-01-31T06:35:42;8.90;;;2.90;;
13588;SDS011;6865;52.552;13.434;2023-01-31T06:38:09;12.50;;;3.40;;
13588;SDS011;6865;52.552;13.434;2023-01-31T06:40:37;10.30;;;2.40;;
13588;SDS011;6865;52.552;13.434;2023-01-31T06:43:04;15.30;;;3.00;;
13588;SDS011;6865;52.552;13.434;2023-01-31T06:45:30;10.77;;;2.90;;
13588;SDS011;6865;52.552;13.434;2023-01-31T06:47:58;16.17;;;3.30;;
13588;SDS011;6865;52.552;13.434;2023-01-31T06:50:24;12.43;;;2.63;;
13588;SDS011;6865;52.552;13.434;2023-01-31T06:52:51;15.40;;;2.90;;
13588;SDS011;6865;52.552;13.434;2023-01-31T06:55:17;11.70;;;2.67;;
13588;SDS011;6865;52.552;13.434;2023-01-31T06:57:48;8.53;;;3.03;;
13588;SDS011;6865;52.552;13.434;2023-01-31T07:00:15;13.47;;;2.83;;
13588;SDS011;6865;52.552;13.434;2023-01-31T07:02:46;13.00;;;2.50;;
13588;SDS011;6865;52.552;13.434;2023-01-31T07:05:13;14.50;;;2.40;;
13588;SDS011;6865;52.552;13.434;2023-01-31T07:07:40;12.40;;;2.27;;
13588;SDS011;6865;52.552;13.434;2023-01-31T07:10:07;10.73;;;2.73;;
13588;SDS011;6865;52.552;13.434;2023-01-31T07:12:34;13.23;;;3.07;;
13588;SDS011;6865;52.552;13.434;2023-01-31T07:15:00;10.20;;;2.23;;
13588;SDS011;6865;52.552;13.434;2023-01-31T07:17:27;7.73;;;2.37;;
13588;SDS011;6865;52.552;13.434;2023-01-31T07:19:54;13.73;;;3.10;;
13588;SDS011;6865;52.552;13.434;2023-01-31T07:22:21;10.57;;;2.93;;
13588;SDS011;6865;52.552;13.434;2023-01-31T07:24:47;10.57;;;2.33;;
13588;SDS011;6865;52.552;13.434;2023-01-31T07:27:16;12.20;;;2.43;;
13588;SDS011;6865;52.552;13.434;2023-01-31T07:29:43;11.77;;;2.63;;
13588;SDS011;6865;52.552;13.434;2023-01-31T07:32:09;8.80;;;2.87;;
13588;SDS011;6865;52.552;13.434;2023-01-31T07:34:36;11.30;;;3.23;;
13588;SDS011;6865;52.552;13.434;2023-01-31T07:37:03;16.67;;;3.10;;
13588;SDS011;6865;52.552;13.434;2023-01-31T07:39:29;13.43;;;3.07;;
13588;SDS011;6865;52.552;13.434;2023-01-31T07:41:56;14.23;;;3.20;;
13588;SDS011;6865;52.552;13.434;2023-01-31T07:44:23;12.23;;;3.17;;
13588;SDS011;6865;52.552;13.434;2023-01-31T07:46:49;10.37;;;2.73;;
13588;SDS011;6865;52.552;13.434;2023-01-31T07:49:19;14.77;;;3.27;;
13588;SDS011;6865;52.552;13.434;2023-01-31T07:51:46;15.13;;;3.47;;
13588;SDS011;6865;52.552;13.434;2023-01-31T07:54:13;9.87;;;3.03;;
13588;SDS011;6865;52.552;13.434;2023-01-31T07:56:40;9.93;;;2.80;;
13588;SDS011;6865;52.552;13.434;2023-01-31T07:59:06;14.40;;;3.20;;
13588;SDS011;6865;52.552;13.434;2023-01-31T08:01:33;14.00;;;3.50;;
13588;SDS011;6865;52.552;13.434;2023-01-31T08:04:20;11.97;;;3.40;;
13588;SDS011;6865;52.552;13.434;2023-01-31T08:06:48;13.83;;;4.00;;
13588;SDS011;6865;52.552;13.434;2023-01-31T08:09:18;14.47;;;3.00;;
13588;SDS011;6865;52.552;13.434;2023-01-31T08:11:45;15.17;;;3.20;;
13588;SDS011;6865;52.552;13.434;2023-01-31T08:14:11;9.43;;;2.70;;
13588;SDS011;6865;52.552;13.434;2023-01-31T08:16:38;16.37;;;3.20;;
13588;SDS011;6865;52.552;13.434;2023-01-31T08:19:04;10.00;;;2.93;;
13588;SDS011;6865;52.552;13.434;2023-01-31T08:21:31;13.37;;;3.10;;
13588;SDS011;6865;52.552;13.434;2023-01-31T08:23:58;15.40;;;3.17;;
13588;SDS011;6865;52.552;13.434;2023-01-31T08:26:25;10.87;;;2.73;;
13588;SDS011;6865;52.552;13.434;2023-01-31T08:28:51;10.20;;;2.67;;
13588;SDS011;6865;52.552;13.434;2023-01-31T08:31:23;13.67;;;2.77;;
13588;SDS011;6865;52.552;13.434;2023-01-31T08:33:50;10.43;;;2.37;;
13588;SDS011;6865;52.552;13.434;2023-01-31T08:36:25;11.37;;;2.80;;
13588;SDS011;6865;52.552;13.434;2023-01-31T08:38:54;12.87;;;3.33;;
13588;SDS011;6865;52.552;13.434;2023-01-31T08:41:22;12.27;;;2.83;;
13588;SDS011;6865;52.552;13.434;2023-01-31T08:43:50;12.13;;;2.83;;
13588;SDS011;6865;52.552;13.434;2023-01-31T08:46:23;13.60;;;3.40;;
13588;SDS011;6865;52.552;13.434;2023-01-31T08:48:56;11.47;;;3.13;;
13588;SDS011;6865;52.552;13.434;2023-01-31T08:51:23;13.77;;;2.90;;
13588;SDS011;6865;52.552;13.434;2023-01-31T08:53:50;13.23;;;3.83;;
13588;SDS011;6865;52.552;13.434;2023-01-31T08:56:17;13.07;;;3.57;;
13588;SDS011;6865;52.552;13.434;2023-01-31T08:58:46;13.20;;;3.40;;
13588;SDS011;6865;52.552;13.434;2023-01-31T09:01:13;12.90;;;2.93;;
13588;SDS011;6865;52.552;13.434;2023-01-31T09:03:42;10.83;;;3.20;;
13588;SDS011;6865;52.552;13.434;2023-01-31T09:06:14;16.60;;;3.23;;
13588;SDS011;6865;52.552;13.434;2023-01-31T09:08:45;10.40;;;3.00;;
13588;SDS011;6865;52.552;13.434;2023-01-31T09:11:12;12.37;;;2.97;;
13588;SDS011;6865;52.552;13.434;2023-01-31T09:13:45;14.90;;;3.00;;
13588;SDS011;6865;52.552;13.434;2023-01-31T09:16:17;15.00;;;2.93;;
13588;SDS011;6865;52.552;13.434;2023-01-31T09:18:44;18.47;;;3.33;;
13588;SDS011;6865;52.552;13.434;2023-01-31T09:21:15;10.87;;;2.73;;
13588;SDS011;6865;52.552;13.434;2023-01-31T09:23:44;14.03;;;3.17;;
13588;SDS011;6865;52.552;13.434;2023-01-31T09:26:11;14.73;;;3.33;;
13588;SDS011;6865;52.552;13.434;2023-01-31T09:28:39;12.47;;;2.70;;
13588;SDS011;6865;52.552;13.434;2023-01-31T09:31:11;14.47;;;3.03;;
13588;SDS011;6865;52.552;13.434;2023-01-31T09:33:39;12.47;;;2.80;;
13588;SDS011;6865;52.552;13.434;2023-01-31T09:36:07;14.50;;;3.73;;
13588;SDS011;6865;52.552;13.434;2023-01-31T09:38:36;17.03;;;3.40;;
13588;SDS011;6865;52.552;13.434;2023-01-31T09:41:13;20.97;;;3.60;;
13588;SDS011;6865;52.552;13.434;2023-01-31T09:43:46;15.37;;;2.83;;
13588;SDS011;6865;52.552;13.434;2023-01-31T09:46:18;15.97;;;3.20;;
13588;SDS011;6865;52.552;13.434;2023-01-31T09:48:51;15.40;;;3.83;;
13588;SDS011;6865;52.552;13.434;2023-01-31T09:51:22;11.37;;;2.80;;
13588;SDS011;6865;52.552;13.434;2023-01-31T09:53:49;17.77;;;3.70;;
13588;SDS011;6865;52.552;13.434;2023-01-31T09:59:00;10.07;;;2.63;;
13588;SDS011;6865;52.552;13.434;2023-01-31T10:01:45;10.50;;;2.90;;
13588;SDS011;6865;52.552;13.434;2023-01-31T10:07:22;15.23;;;3.57;;
13588;SDS011;6865;52.552;13.434;2023-01-31T10:09:56;10.83;;;2.87;;
13588;SDS011;6865;52.552;13.434;2023-01-31T10:15:14;12.97;;;2.87;;
13588;SDS011;6865;52.552;13.434;2023-01-31T10:18:14;9.77;;;2.53;;
13588;SDS011;6865;52.552;13.434;2023-01-31T10:20:45;15.17;;;5.10;;
13588;SDS011;6865;52.552;13.434;2023-01-31T10:25:55;11.73;;;3.13;;
13588;SDS011;6865;52.552;13.434;2023-01-31T10:31:25;15.20;;;3.87;;
13588;SDS011;6865;52.552;13.434;2023-01-31T10:34:18;16.93;;;3.77;;
13588;SDS011;6865;52.552;13.434;2023-01-31T10:37:06;13.73;;;4.33;;
13588;SDS011;6865;52.552;13.434;2023-01-31T10:39:51;12.23;;;3.60;;
13588;SDS011;6865;52.552;13.434;2023-01-31T10:42:23;10.63;;;2.90;;
13588;SDS011;6865;52.552;13.434;2023-01-31T10:45:00;13.27;;;2.77;;
13588;SDS011;6865;52.552;13.434;2023-01-31T10:47:32;12.73;;;2.97;;
13588;SDS011;6865;52.552;13.434;2023-01-31T10:50:12;11.47;;;3.13;;
13588;SDS011;6865;52.552;13.434;2023-01-31T10:52:48;13.17;;;3.20;;
13588;SDS011;6865;52.552;13.434;2023-01-31T10:55:53;10.93;;;3.17;;
13588;SDS011;6865;52.552;13.434;2023-01-31T10:58:26;14.00;;;3.00;;
13588;SDS011;6865;52.552;13.434;2023-01-31T11:00:53;14.47;;;3.53;;
13588;SDS011;6865;52.552;13.434;2023-01-31T11:03:20;9.40;;;3.17;;
13588;SDS011;6865;52.552;13.434;2023-01-31T11:05:48;16.93;;;3.17;;
13588;SDS011;6865;52.552;13.434;2023-01-31T11:08:20;10.70;;;3.50;;
13588;SDS011;6865;52.552;13.434;2023-01-31T11:11:04;11.10;;;2.97;;
13588;SDS011;6865;52.552;13.434;2023-01-31T11:13:35;11.13;;;3.30;;
13588;SDS011;6865;52.552;13.434;2023-01-31T11:16:02;14.80;;;3.37;;
13588;SDS011;6865;52.552;13.434;2023-01-31T11:18:33;13.27;;;3.17;;
13588;SDS011;6865;52.552;13.434;2023-01-31T11:21:03;16.47;;;3.30;;
13588;SDS011;6865;52.552;13.434;2023-01-31T11:23:31;15.50;;;3.40;;
13588;SDS011;6865;52.552;13.434;2023-01-31T11:26:00;15.10;;;3.77;;
13588;SDS011;6865;52.552;13.434;2023-01-31T11:28:37;14.60;;;3.30;;
13588;SDS011;6865;52.552;13.434;2023-01-31T11:31:06;13.10;;;3.30;;
13588;SDS011;6865;52.552;13.434;2023-01-31T11:36:12;15.63;;;4.30;;
13588;SDS011;6865;52.552;13.434;2023-01-31T11:38:48;11.40;;;3.47;;
13588;SDS011;6865;52.552;13.434;2023-01-31T11:41:26;12.47;;;3.60;;
13588;SDS011;6865;52.552;13.434;2023-01-31T11:46:40;13.80;;;3.90;;
13588;SDS011;6865;52.552;13.434;2023-01-31T11:49:10;15.87;;;3.53;;
13588;SDS011;6865;52.552;13.434;2023-01-31T11:51:38;15.57;;;4.57;;
13588;SDS011;6865;52.552;13.434;2023-01-31T11:54:06;13.77;;;3.70;;
13588;SDS011;6865;52.552;13.434;2023-01-31T11:56:33;15.73;;;3.83;;
13588;SDS011;6865;52.552;13.434;2023-01-31T11:59:03;10.60;;;3.47;;
13588;SDS011;6865;52.552;13.434;2023-01-31T12:01:33;12.50;;;4.03;;
13588;SDS011;6865;52.552;13.434;2023-01-31T12:04:10;10.43;;;3.53;;
13588;SDS011;6865;52.552;13.434;2023-01-31T12:06:58;13.77;;;3.93;;
13588;SDS011;6865;52.552;13.434;2023-01-31T12:09:45;18.40;;;4.03;;
13588;SDS011;6865;52.552;13.434;2023-01-31T12:12:24;15.60;;;4.40;;
13588;SDS011;6865;52.552;13.434;2023-01-31T12:15:03;13.97;;;3.87;;
13588;SDS011;6865;52.552;13.434;2023-01-31T12:17:41;14.70;;;4.03;;
13588;SDS011;6865;52.552;13.434;2023-01-31T12:20:21;14.80;;;3.83;;
13588;SDS011;6865;52.552;13.434;2023-01-31T12:26:03;13.73;;;3.83;;
13588;SDS011;6865;52.552;13.434;2023-01-31T12:28:37;15.67;;;4.10;;
13588;SDS011;6865;52.552;13.434;2023-01-31T12:31:29;15.00;;;4.30;;
13588;SDS011;6865;52.552;13.434;2023-01-31T12:34:29;16.13;;;4.30;;
13588;SDS011;6865;52.552;13.434;2023-01-31T12:40:28;9.37;;;2.80;;
13588;SDS011;6865;52.552;13.434;2023-01-31T12:43:07;15.37;;;3.63;;
13588;SDS011;6865;52.552;13.434;2023-01-31T12:45:57;10.37;;;4.53;;
13588;SDS011;6865;52.552;13.434;2023-01-31T12:53:43;15.73;;;3.93;;
13588;SDS011;6865;52.552;13.434;2023-01-31T12:56:40;12.60;;;4.33;;
13588;SDS011;6865;52.552;13.434;2023-01-31T12:59:36;18.97;;;4.37;;
13588;SDS011;6865;52.552;13.434;2023-01-31T13:06:12;9.67;;;4.03;;
13588;SDS011;6865;52.552;13.434;2023-01-31T13:08:25;10.50;;;4.43;;
13588;SDS011;6865;52.552;13.434;2023-01-31T13:10:57;9.20;;;4.50;;
13588;SDS011;6865;52.552;13.434;2023-01-31T13:13:30;13.73;;;5.73;;
13588;SDS011;6865;52.552;13.434;2023-01-31T13:18:45;13.10;;;6.17;;
13588;SDS011;6865;52.552;13.434;2023-01-31T13:21:15;16.77;;;5.67;;
13588;SDS011;6865;52.552;13.434;2023-01-31T13:23:52;15.43;;;6.13;;
13588;SDS011;6865;52.552;13.434;2023-01-31T13:26:26;12.90;;;5.70;;
13588;SDS011;6865;52.552;13.434;2023-01-31T13:29:00;17.23;;;6.03;;
13588;SDS011;6865;52.552;13.434;2023-01-31T13:31:34;12.37;;;5.63;;
13588;SDS011;6865;52.552;13.434;2023-01-31T13:34:10;15.07;;;6.10;;
13588;SDS011;6865;52.552;13.434;2023-01-31T13:36:43;17.10;;;6.00;;
13588;SDS011;6865;52.552;13.434;2023-01-31T13:39:14;13.13;;;6.03;;
13588;SDS011;6865;52.552;13.434;2023-01-31T13:41:49;13.90;;;5.10;;
13588;SDS011;6865;52.552;13.434;2023-01-31T13:44:16;14.30;;;5.77;;
13588;SDS011;6865;52.552;13.434;2023-01-31T13:46:44;12.37;;;5.13;;
13588;SDS011;6865;52.552;13.434;2023-01-31T13:49:36;12.40;;;5.87;;
13588;SDS011;6865;52.552;13.434;2023-01-31T13:52:11;10.53;;;5.33;;
13588;SDS011;6865;52.552;13.434;2023-01-31T13:54:55;14.23;;;6.23;;
13588;SDS011;6865;52.552;13.434;2023-01-31T13:57:35;11.23;;;5.67;;
13588;SDS011;6865;52.552;13.434;2023-01-31T14:03:16;13.03;;;5.53;;
13588;SDS011;6865;52.552;13.434;2023-01-31T14:08:35;9.30;;;4.93;;
13588;SDS011;6865;52.552;13.434;2023-01-31T14:13:47;10.20;;;5.93;;
13588;SDS011;6865;52.552;13.434;2023-01-31T14:16:34;11.63;;;6.57;;
13588;SDS011;6865;52.552;13.434;2023-01-31T14:24:19;8.87;;;6.77;;
13588;SDS011;6865;52.552;13.434;2023-01-31T14:27:10;10.10;;;6.37;;
13588;SDS011;6865;52.552;13.434;2023-01-31T14:29:55;9.03;;;5.30;;
13588;SDS011;6865;52.552;13.434;2023-01-31T14:32:33;9.23;;;5.60;;
13588;SDS011;6865;52.552;13.434;2023-01-31T14:37:46;8.67;;;6.23;;
13588;SDS011;6865;52.552;13.434;2023-01-31T14:40:32;7.37;;;6.40;;
13588;SDS011;6865;52.552;13.434;2023-01-31T14:43:17;9.70;;;6.90;;
13588;SDS011;6865;52.552;13.434;2023-01-31T14:57:30;12.93;;;8.83;;
13588;SDS011;6865;52.552;13.434;2023-01-31T15:00:14;10.30;;;7.60;;
13588;SDS011;6865;52.552;13.434;2023-01-31T15:02:52;14.07;;;9.17;;
13588;SDS011;6865;52.552;13.434;2023-01-31T15:08:28;10.30;;;7.83;;
13588;SDS011;6865;52.552;13.434;2023-01-31T15:11:02;9.13;;;7.50;;
13588;SDS011;6865;52.552;13.434;2023-01-31T15:19:00;10.40;;;7.47;;
13588;SDS011;6865;52.552;13.434;2023-01-31T15:21:47;11.83;;;8.63;;
13588;SDS011;6865;52.552;13.434;2023-01-31T15:24:20;10.97;;;8.00;;
13588;SDS011;6865;52.552;13.434;2023-01-31T15:27:02;9.47;;;7.43;;
13588;SDS011;6865;52.552;13.434;2023-01-31T15:29:33;8.97;;;7.30;;
13588;SDS011;6865;52.552;13.434;2023-01-31T15:35:16;12.03;;;8.10;;
13588;SDS011;6865;52.552;13.434;2023-01-31T15:37:54;11.23;;;7.77;;
13588;SDS011;6865;52.552;13.434;2023-01-31T15:40:26;12.43;;;9.13;;
13588;SDS011;6865;52.552;13.434;2023-01-31T15:42:54;9.90;;;8.33;;
13588;SDS011;6865;52.552;13.434;2023-01-31T15:45:41;14.03;;;8.93;;
13588;SDS011;6865;52.552;13.434;2023-01-31T15:48:12;12.63;;;9.20;;
13588;SDS011;6865;52.552;13.434;2023-01-31T15:50:51;14.63;;;8.93;;
13588;SDS011;6865;52.552;13.434;2023-01-31T15:53:20;13.80;;;9.50;;
13588;SDS011;6865;52.552;13.434;2023-01-31T15:55:49;12.57;;;9.57;;
13588;SDS011;6865;52.552;13.434;2023-01-31T15:58:19;20.27;;;12.63;;
13588;SDS011;6865;52.552;13.434;2023-01-31T16:00:48;14.80;;;10.30;;
13588;SDS011;6865;52.552;13.434;2023-01-31T16:03:19;13.73;;;10.93;;
13588;SDS011;6865;52.552;13.434;2023-01-31T16:05:48;17.10;;;12.33;;
13588;SDS011;6865;52.552;13.434;2023-01-31T16:08:19;14.57;;;10.70;;
13588;SDS011;6865;52.552;13.434;2023-01-31T16:11:04;14.83;;;10.23;;
13588;SDS011;6865;52.552;13.434;2023-01-31T16:13:34;14.07;;;11.63;;
13588;SDS011;6865;52.552;13.434;2023-01-31T16:16:04;14.37;;;11.03;;
13588;SDS011;6865;52.552;13.434;2023-01-31T16:18:35;13.20;;;11.03;;
13588;SDS011;6865;52.552;13.434;2023-01-31T16:24:02;12.70;;;9.73;;
13588;SDS011;6865;52.552;13.434;2023-01-31T16:26:38;15.73;;;10.90;;
13588;SDS011;6865;52.552;13.434;2023-01-31T16:29:13;16.50;;;10.70;;
13588;SDS011;6865;52.552;13.434;2023-01-31T16:31:44;13.43;;;10.80;;
13588;SDS011;6865;52.552;13.434;2023-01-31T16:36:55;13.27;;;10.03;;
13588;SDS011;6865;52.552;13.434;2023-01-31T16:39:35;14.77;;;10.37;;
13588;SDS011;6865;52.552;13.434;2023-01-31T16:42:20;12.67;;;10.00;;
13588;SDS011;6865;52.552;13.434;2023-01-31T16:44:51;14.87;;;11.20;;
13588;SDS011;6865;52.552;13.434;2023-01-31T16:47:30;15.40;;;11.57;;
13588;SDS011;6865;52.552;13.434;2023-01-31T16:53:44;15.07;;;10.60;;
13588;SDS011;6865;52.552;13.434;2023-01-31T16:58:46;14.00;;;10.70;;
13588;SDS011;6865;52.552;13.434;2023-01-31T17:01:14;14.00;;;10.60;;
13588;SDS011;6865;52.552;13.434;2023-01-31T17:03:43;13.87;;;10.97;;